Time;durP1;ratioP1;P1;durP2;ratioP2;P2;SDS_P1;SDS_P2;PMS_P1;PMS_P2;Temp;Humidity;BMP_temperature;BMP_pressure;BME280_temperature;BME280_humidity;BME280_pressure;Samples;Min_cycle;Max_cycle;Signal;HPM_P1;HPM_P2
2023/04/04 00:01:15;;;;;;;3.47;3.28;;;2.50;99.90;;;;;;5013929;28;21963;-78
2023/04/04 00:03:41;;;;;;;3.10;2.90;;;2.40;99.90;;;;;;5036837;28;20393;-77
2023/04/04 00:06:07;;;;;;;3.22;3.03;;;2.40;99.90;;;;;;5014742;28;20041;-78
2023/04/04 00:08:33;;;;;;;2.80;2.60;;;2.50;99.90;;;;;;5033454;28;21127;-78
2023/04/04 00:11:00;;;;;;;3.00;2.80;;;2.40;99.90;;;;;;5019684;28;20461;-78
2023/04/04 00:13:26;;;;;;;3.03;2.83;;;2.40;99.90;;;;;;5009372;28;20525;-78
2023/04/04 00:15:53;;;;;;;3.08;2.88;;;2.40;99.90;;;;;;5015770;28;20041;-78
2023/04/04 00:18:18;;;;;;;2.75;2.60;;;2.30;99.90;;;;;;5014750;28;20055;-78
2023/04/04 00:20:44;;;;;;;3.13;2.92;;;2.40;99.90;;;;;;5010698;28;20080;-78
2023/04/04 00:23:10;;;;;;;3.15;2.95;;;2.30;99.90;;;;;;5013536;28;20045;-78
2023/04/04 00:25:37;;;;;;;2.60;2.50;;;2.30;99.90;;;;;;5016359;28;20059;-78
2023/04/04 00:28:02;;;;;;;2.60;2.50;;;2.30;99.90;;;;;;5033370;28;20148;-78
2023/04/04 00:30:30;;;;;;;2.50;2.40;;;2.20;99.90;;;;;;5017132;28;20045;-78
2023/04/04 00:32:56;;;;;;;2.40;2.30;;;2.20;99.90;;;;;;5009649;28;20065;-78
2023/04/04 00:35:21;;;;;;;2.40;2.30;;;2.10;99.90;;;;;;4997351;28;20712;-78
2023/04/04 00:37:47;;;;;;;2.60;2.50;;;2.20;99.90;;;;;;5013046;28;20521;-78
2023/04/04 00:40:13;;;;;;;2.30;2.20;;;2.20;99.90;;;;;;5016850;28;20053;-78
2023/04/04 00:42:39;;;;;;;2.38;2.28;;;2.20;99.90;;;;;;5015752;28;20112;-78
2023/04/04 00:45:08;;;;;;;2.20;2.10;;;2.20;99.90;;;;;;5009539;28;20132;-78
2023/04/04 00:47:35;;;;;;;2.80;2.60;;;2.20;99.90;;;;;;5020463;28;20033;-78
2023/04/04 00:50:01;;;;;;;2.10;2.00;;;2.20;99.90;;;;;;5017101;28;20164;-78
2023/04/04 00:52:26;;;;;;;2.20;2.10;;;2.20;99.90;;;;;;5016945;28;20049;-78
2023/04/04 00:54:55;;;;;;;2.70;2.60;;;2.20;99.90;;;;;;5022837;28;20041;-78
2023/04/04 00:57:21;;;;;;;3.03;2.83;;;2.20;99.90;;;;;;5016145;28;20049;-78
2023/04/04 00:59:47;;;;;;;2.13;2.03;;;2.00;99.90;;;;;;5015453;28;20389;-78
2023/04/04 01:02:13;;;;;;;2.60;2.50;;;2.00;99.90;;;;;;5010637;28;20211;-78
2023/04/04 01:04:39;;;;;;;2.50;2.40;;;2.10;99.90;;;;;;5021105;28;20548;-78
2023/04/04 01:07:04;;;;;;;1.90;1.80;;;2.10;99.90;;;;;;5012811;28;20052;-78
2023/04/04 01:09:31;;;;;;;2.00;1.90;;;2.10;99.90;;;;;;5030909;28;20057;-78
2023/04/04 01:11:57;;;;;;;2.20;2.10;;;2.10;99.90;;;;;;5005016;28;20049;-78
2023/04/04 01:14:23;;;;;;;2.30;2.20;;;2.00;99.90;;;;;;5010070;28;20041;-78
2023/04/04 01:16:50;;;;;;;1.85;1.75;;;2.00;99.90;;;;;;5013973;28;20079;-78
2023/04/04 01:19:28;;;;;;;1.80;1.70;;;2.00;99.90;;;;;;5014951;28;20045;-78
2023/04/04 01:21:56;;;;;;;1.80;1.70;;;1.80;99.90;;;;;;5015120;28;20516;-78
2023/04/04 01:24:24;;;;;;;2.00;1.90;;;1.80;99.90;;;;;;5014278;28;20378;-78
2023/04/04 01:26:50;;;;;;;2.20;2.10;;;1.90;99.90;;;;;;5013095;28;20705;-78
2023/04/04 01:29:16;;;;;;;1.60;1.50;;;1.80;99.90;;;;;;5033633;28;20099;-78
2023/04/04 01:32:04;;;;;;;1.85;1.75;;;1.70;99.90;;;;;;5016552;28;20135;-78
2023/04/04 01:34:45;;;;;;;1.60;1.50;;;1.90;99.90;;;;;;5011433;28;20049;-78
2023/04/04 01:37:33;;;;;;;1.80;1.70;;;1.80;99.90;;;;;;5028020;28;20394;-78
2023/04/04 01:40:12;;;;;;;1.50;1.40;;;1.70;99.90;;;;;;5016040;28;20037;-78
2023/04/04 01:42:40;;;;;;;1.70;1.60;;;1.80;99.90;;;;;;5018897;28;20053;-78
2023/04/04 01:45:07;;;;;;;1.73;1.63;;;1.70;99.90;;;;;;5036272;28;20450;-78
2023/04/04 01:47:39;;;;;;;1.50;1.40;;;1.70;99.90;;;;;;5001858;28;20054;-78
2023/04/04 01:50:07;;;;;;;1.20;1.20;;;1.70;99.90;;;;;;5036241;28;20037;-78
2023/04/04 01:52:33;;;;;;;1.48;1.40;;;1.70;99.90;;;;;;5015931;28;20080;-78
2023/04/04 01:54:59;;;;;;;1.30;1.30;;;1.70;99.90;;;;;;5018280;28;20036;-78
2023/04/04 01:57:25;;;;;;;1.20;1.20;;;1.60;99.90;;;;;;5016362;28;20060;-78
2023/04/04 01:59:50;;;;;;;1.10;1.10;;;1.70;99.90;;;;;;5018694;28;20044;-78
2023/04/04 02:02:16;;;;;;;1.30;1.30;;;1.70;99.90;;;;;;5017346;28;20043;-78
2023/04/04 02:04:42;;;;;;;1.10;1.10;;;1.60;99.90;;;;;;5017085;28;20076;-78
2023/04/04 02:07:07;;;;;;;1.20;1.20;;;1.70;99.90;;;;;;5019452;28;20398;-78
2023/04/04 02:09:33;;;;;;;1.10;1.10;;;1.60;99.90;;;;;;5018368;28;20122;-78
2023/04/04 02:11:59;;;;;;;1.05;1.05;;;1.50;99.90;;;;;;5019535;28;20118;-78
2023/04/04 02:14:25;;;;;;;1.10;1.10;;;1.50;99.90;;;;;;5033943;28;20046;-78
2023/04/04 02:16:51;;;;;;;1.10;1.10;;;1.40;99.90;;;;;;5017205;28;20036;-78
2023/04/04 02:19:17;;;;;;;1.00;1.00;;;1.30;99.90;;;;;;5020506;28;20045;-78
2023/04/04 02:21:43;;;;;;;1.20;1.20;;;1.40;99.90;;;;;;5018752;28;20505;-78
2023/04/04 02:24:09;;;;;;;1.20;1.20;;;1.30;99.90;;;;;;5020206;28;20065;-78
2023/04/04 02:26:35;;;;;;;1.10;1.10;;;1.40;99.90;;;;;;5014255;28;20048;-78
2023/04/04 02:29:01;;;;;;;1.10;1.10;;;1.20;99.90;;;;;;5019374;28;20076;-78
2023/04/04 02:31:27;;;;;;;1.10;1.10;;;1.20;99.90;;;;;;5036107;28;20041;-78
2023/04/04 02:33:53;;;;;;;1.10;1.10;;;1.20;99.90;;;;;;5018729;28;20596;-78
2023/04/04 02:36:19;;;;;;;1.10;1.10;;;1.20;99.90;;;;;;5015339;28;20041;-78
2023/04/04 02:38:44;;;;;;;1.00;1.00;;;1.10;99.90;;;;;;5034597;28;20037;-78
2023/04/04 02:41:11;;;;;;;1.00;1.00;;;1.00;99.90;;;;;;5028093;28;20049;-78
2023/04/04 02:43:36;;;;;;;1.00;1.00;;;1.10;99.90;;;;;;5015593;28;20045;-78
2023/04/04 02:46:02;;;;;;;1.00;1.00;;;1.10;99.90;;;;;;5016056;28;20390;-78
2023/04/04 02:48:28;;;;;;;0.90;0.90;;;1.10;99.90;;;;;;5018328;28;20606;-78
2023/04/04 02:50:53;;;;;;;0.90;0.90;;;1.10;99.90;;;;;;5034349;28;20064;-78
2023/04/04 02:53:19;;;;;;;0.90;0.90;;;1.00;99.90;;;;;;5019312;28;20049;-77
2023/04/04 02:55:45;;;;;;;0.90;0.90;;;1.10;99.90;;;;;;5017671;28;20033;-78
2023/04/04 02:58:11;;;;;;;0.90;0.90;;;1.10;99.90;;;;;;5016607;28;20055;-78
2023/04/04 03:00:37;;;;;;;0.90;0.90;;;1.10;99.90;;;;;;5016358;28;20086;-78
2023/04/04 03:03:04;;;;;;;0.90;0.90;;;1.20;99.90;;;;;;5017408;28;20484;-78
2023/04/04 03:05:30;;;;;;;0.90;0.90;;;1.20;99.90;;;;;;5030250;28;20049;-78
2023/04/04 03:07:57;;;;;;;1.00;1.00;;;1.10;99.90;;;;;;5035731;28;20050;-77
2023/04/04 03:10:24;;;;;;;1.00;1.00;;;1.00;99.90;;;;;;5018310;28;20363;-78
2023/04/04 03:12:50;;;;;;;0.90;0.90;;;1.00;99.90;;;;;;5034780;28;20053;-78
2023/04/04 03:15:16;;;;;;;0.80;0.80;;;1.00;99.90;;;;;;5016504;28;20371;-78
2023/04/04 03:17:42;;;;;;;0.82;0.82;;;0.90;99.90;;;;;;5037995;28;20036;-78
2023/04/04 03:20:08;;;;;;;0.80;0.80;;;1.00;99.90;;;;;;5019735;28;20525;-78
2023/04/04 03:22:34;;;;;;;0.82;0.82;;;0.90;99.90;;;;;;5016197;28;20041;-77
2023/04/04 03:25:00;;;;;;;0.90;0.90;;;0.90;99.90;;;;;;5036004;28;20045;-78
2023/04/04 03:27:26;;;;;;;0.95;0.95;;;0.90;99.90;;;;;;5016475;28;20549;-78
2023/04/04 03:29:51;;;;;;;0.90;0.90;;;0.80;99.90;;;;;;5016523;28;20048;-78
2023/04/04 03:32:17;;;;;;;0.80;0.80;;;0.70;99.90;;;;;;5016892;28;20041;-77
2023/04/04 03:34:43;;;;;;;0.90;0.90;;;0.70;99.90;;;;;;5017405;28;20638;-77
2023/04/04 03:37:09;;;;;;;0.80;0.80;;;0.60;99.90;;;;;;5017869;28;20067;-77
2023/04/04 03:39:35;;;;;;;0.90;0.90;;;0.60;99.90;;;;;;5036246;28;20697;-77
2023/04/04 03:42:00;;;;;;;1.00;1.00;;;0.50;99.90;;;;;;5017268;28;20048;-78
2023/04/04 03:44:26;;;;;;;0.90;0.90;;;0.50;99.90;;;;;;5017262;28;20547;-78
2023/04/04 03:46:52;;;;;;;0.90;0.90;;;0.50;99.90;;;;;;5016684;28;20045;-78
2023/04/04 03:49:18;;;;;;;0.80;0.80;;;0.40;99.90;;;;;;5035474;28;20566;-78
2023/04/04 03:51:44;;;;;;;0.90;0.90;;;0.40;99.90;;;;;;5016975;28;20076;-78
2023/04/04 03:54:10;;;;;;;0.90;0.90;;;0.40;99.90;;;;;;5021573;28;20075;-78
2023/04/04 03:56:35;;;;;;;1.73;1.63;;;0.40;99.90;;;;;;5002046;28;20075;-78
2023/04/04 03:59:01;;;;;;;1.30;1.30;;;0.40;99.90;;;;;;5017269;28;20088;-78
2023/04/04 04:01:27;;;;;;;1.60;1.50;;;0.40;99.90;;;;;;5033775;28;20052;-78
2023/04/04 04:03:52;;;;;;;1.42;1.40;;;0.30;99.90;;;;;;5017255;28;20045;-78
2023/04/04 04:06:18;;;;;;;1.50;1.40;;;0.40;99.90;;;;;;5016410;28;20041;-78
2023/04/04 04:08:44;;;;;;;1.40;1.40;;;0.30;99.90;;;;;;5018199;28;20160;-78
2023/04/04 04:11:09;;;;;;;1.60;1.50;;;0.30;99.90;;;;;;5017940;28;20044;-78
2023/04/04 04:13:37;;;;;;;1.60;1.50;;;0.30;99.90;;;;;;5019443;28;20044;-78
2023/04/04 04:16:03;;;;;;;1.50;1.40;;;0.20;99.90;;;;;;5016300;28;20045;-78
2023/04/04 04:18:29;;;;;;;1.50;1.40;;;0.30;99.90;;;;;;5015992;28;20037;-78
2023/04/04 04:20:58;;;;;;;1.65;1.55;;;0.20;99.90;;;;;;5018467;28;20115;-78
2023/04/04 04:23:24;;;;;;;1.40;1.40;;;0.20;99.90;;;;;;5017067;28;20425;-78
2023/04/04 04:25:50;;;;;;;1.30;1.30;;;0.10;99.90;;;;;;5018247;28;20041;-78
2023/04/04 04:28:16;;;;;;;1.20;1.20;;;0.20;99.90;;;;;;5015520;28;20069;-78
2023/04/04 04:30:43;;;;;;;1.50;1.40;;;0.20;99.90;;;;;;5031211;28;20091;-78
2023/04/04 04:33:08;;;;;;;1.50;1.40;;;0.10;99.90;;;;;;5018231;28;20053;-78
2023/04/04 04:35:40;;;;;;;1.40;1.40;;;0.00;99.90;;;;;;5018933;28;20359;-78
2023/04/04 04:38:06;;;;;;;1.40;1.40;;;-0.10;99.90;;;;;;5024021;28;20052;-78
2023/04/04 04:40:33;;;;;;;1.60;1.50;;;-0.20;99.90;;;;;;5022316;28;20040;-78
2023/04/04 04:42:59;;;;;;;1.60;1.50;;;-0.10;99.90;;;;;;5019774;28;20048;-78
2023/04/04 04:45:25;;;;;;;1.58;1.48;;;-0.10;99.90;;;;;;5017879;28;20049;-78
2023/04/04 04:47:51;;;;;;;1.30;1.30;;;0.00;99.90;;;;;;5018330;28;20140;-78
2023/04/04 04:50:16;;;;;;;1.60;1.50;;;0.10;99.90;;;;;;5021075;28;20501;-78
2023/04/04 04:52:42;;;;;;;1.52;1.42;;;0.00;99.90;;;;;;5019906;28;20072;-78
2023/04/04 04:55:09;;;;;;;1.60;1.50;;;0.10;99.90;;;;;;5018685;28;20140;-78
2023/04/04 04:57:35;;;;;;;1.70;1.60;;;0.00;99.90;;;;;;5020072;28;20056;-78
2023/04/04 05:00:03;;;;;;;1.60;1.50;;;0.00;99.90;;;;;;5019740;28;20041;-78
2023/04/04 05:02:28;;;;;;;1.60;1.50;;;0.00;99.90;;;;;;5036867;28;20060;-78
2023/04/04 05:04:54;;;;;;;1.60;1.50;;;0.10;99.90;;;;;;5017549;28;20398;-78
2023/04/04 05:07:20;;;;;;;1.60;1.50;;;0.00;99.90;;;;;;5000760;28;20052;-78
2023/04/04 05:09:45;;;;;;;1.50;1.40;;;0.00;99.90;;;;;;5021536;28;20067;-78
2023/04/04 05:12:11;;;;;;;1.60;1.50;;;0.00;99.90;;;;;;5019961;28;20056;-78
2023/04/04 05:14:37;;;;;;;1.65;1.55;;;0.00;99.90;;;;;;5036788;28;20067;-78
2023/04/04 05:17:06;;;;;;;1.70;1.60;;;0.00;99.90;;;;;;5018556;28;20123;-78
2023/04/04 05:19:31;;;;;;;1.60;1.50;;;0.10;99.90;;;;;;5007900;28;20048;-78
2023/04/04 05:21:57;;;;;;;1.70;1.60;;;0.10;99.90;;;;;;5038771;28;20040;-78
2023/04/04 05:24:22;;;;;;;1.70;1.60;;;0.20;99.90;;;;;;5036346;28;20498;-79
2023/04/04 05:26:48;;;;;;;1.70;1.60;;;0.20;99.90;;;;;;5018380;28;20084;-78
2023/04/04 05:29:14;;;;;;;1.50;1.40;;;0.30;99.90;;;;;;5020715;28;20120;-78
2023/04/04 05:31:40;;;;;;;1.00;1.00;;;0.70;99.90;;;;;;5019828;28;20072;-80
2023/04/04 05:34:08;;;;;;;1.33;1.33;;;1.30;99.90;;;;;;5018537;28;20429;-78
2023/04/04 05:36:35;;;;;;;1.30;1.30;;;1.70;99.90;;;;;;5018031;28;20040;-78
2023/04/04 05:39:03;;;;;;;1.00;1.00;;;2.30;99.90;;;;;;5022717;28;20048;-80
2023/04/04 05:41:29;;;;;;;2.00;1.90;;;2.40;99.90;;;;;;5020189;28;20139;-78
2023/04/04 05:43:55;;;;;;;2.00;1.90;;;2.70;99.90;;;;;;5023021;28;20091;-78
2023/04/04 05:46:21;;;;;;;2.00;1.90;;;2.90;99.90;;;;;;5004805;28;20057;-79
2023/04/04 05:48:49;;;;;;;1.90;1.80;;;3.30;99.90;;;;;;5008762;28;20880;-78
2023/04/04 05:51:15;;;;;;;1.90;1.80;;;3.60;99.90;;;;;;5005528;28;20044;-78
2023/04/04 05:53:40;;;;;;;1.70;1.60;;;4.20;99.90;;;;;;5002020;28;20049;-78
2023/04/04 05:56:06;;;;;;;1.70;1.60;;;4.10;99.90;;;;;;5019612;28;20037;-78
2023/04/04 05:58:32;;;;;;;1.80;1.70;;;3.00;99.90;;;;;;5015540;28;20068;-78
2023/04/04 06:00:57;;;;;;;1.70;1.60;;;3.00;99.90;;;;;;5017839;28;20045;-78
2023/04/04 06:03:23;;;;;;;1.80;1.70;;;2.90;99.90;;;;;;5016275;28;20041;-78
2023/04/04 06:05:51;;;;;;;1.80;1.70;;;2.70;99.90;;;;;;5006632;28;20036;-78
2023/04/04 06:08:17;;;;;;;1.60;1.50;;;2.90;99.90;;;;;;5011114;28;20040;-78
2023/04/04 06:10:42;;;;;;;1.80;1.70;;;3.00;99.90;;;;;;5018022;28;20047;-78
2023/04/04 06:13:08;;;;;;;1.70;1.60;;;2.90;99.90;;;;;;5025025;28;20523;-78
2023/04/04 06:15:34;;;;;;;1.60;1.50;;;2.90;99.90;;;;;;5017927;28;20045;-78
2023/04/04 06:18:00;;;;;;;1.58;1.48;;;2.80;99.90;;;;;;5020085;28;20049;-78
2023/04/04 06:20:25;;;;;;;1.67;1.58;;;3.00;99.90;;;;;;5019478;28;20056;-77
2023/04/04 06:22:51;;;;;;;1.63;1.52;;;2.80;99.90;;;;;;5020179;28;20052;-77
2023/04/04 06:25:17;;;;;;;1.60;1.50;;;2.80;99.90;;;;;;5012653;28;20049;-78
2023/04/04 06:27:43;;;;;;;1.65;1.55;;;2.70;99.90;;;;;;5003628;28;20033;-78
2023/04/04 06:30:09;;;;;;;1.70;1.60;;;2.80;99.90;;;;;;5019262;28;20046;-78
2023/04/04 06:32:35;;;;;;;1.60;1.50;;;2.90;99.90;;;;;;5010412;28;20643;-78
2023/04/04 06:35:00;;;;;;;1.50;1.40;;;3.00;99.90;;;;;;5010347;28;20052;-77
2023/04/04 06:37:26;;;;;;;1.10;1.10;;;3.20;99.90;;;;;;5020193;28;20045;-78
2023/04/04 06:39:52;;;;;;;1.20;1.20;;;3.40;99.90;;;;;;5023901;28;20428;-79
2023/04/04 06:42:18;;;;;;;1.08;1.08;;;3.40;99.90;;;;;;5008193;28;20880;-77
2023/04/04 06:44:43;;;;;;;1.10;1.10;;;3.00;99.90;;;;;;5009015;28;20064;-78
2023/04/04 06:47:09;;;;;;;1.13;1.13;;;3.20;99.90;;;;;;5009044;28;20045;-77
2023/04/04 06:49:35;;;;;;;1.10;1.10;;;3.50;99.90;;;;;;5005364;28;20115;-78
2023/04/04 06:52:01;;;;;;;1.10;1.10;;;4.00;99.90;;;;;;5012329;28;20521;-77
2023/04/04 06:54:26;;;;;;;1.00;1.00;;;3.70;99.90;;;;;;5006818;28;20048;-78
2023/04/04 06:56:52;;;;;;;1.00;1.00;;;3.90;99.90;;;;;;5025383;28;20440;-77
2023/04/04 06:59:18;;;;;;;1.10;1.10;;;3.90;99.90;;;;;;5021299;28;20045;-78
2023/04/04 07:01:43;;;;;;;0.90;0.90;;;4.00;99.90;;;;;;5028769;28;20043;-78
2023/04/04 07:04:10;;;;;;;1.00;1.00;;;4.00;99.90;;;;;;5019204;28;20088;-78
2023/04/04 07:06:36;;;;;;;1.00;1.00;;;4.20;99.90;;;;;;5015741;28;20053;-78
2023/04/04 07:09:03;;;;;;;0.90;0.90;;;4.10;99.90;;;;;;5019305;28;20045;-78
2023/04/04 07:11:29;;;;;;;1.00;1.00;;;4.00;99.90;;;;;;5017141;28;20053;-77
2023/04/04 07:13:55;;;;;;;1.00;1.00;;;4.40;99.90;;;;;;5036798;28;20044;-78
2023/04/04 07:16:21;;;;;;;0.90;0.90;;;4.80;99.90;;;;;;5036181;28;20593;-78
2023/04/04 07:18:46;;;;;;;1.00;1.00;;;4.80;99.90;;;;;;5019737;28;20099;-78
2023/04/04 07:21:12;;;;;;;1.00;1.00;;;5.40;99.90;;;;;;5036374;28;20052;-79
2023/04/04 07:23:38;;;;;;;0.90;0.90;;;4.20;99.90;;;;;;5017186;28;20040;-79
2023/04/04 07:26:04;;;;;;;0.90;0.90;;;4.30;99.90;;;;;;5033831;28;20051;-79
2023/04/04 07:28:30;;;;;;;0.90;0.90;;;4.40;99.90;;;;;;5004129;28;20747;-79
2023/04/04 07:31:00;;;;;;;0.90;0.90;;;5.00;99.90;;;;;;5017689;28;21232;-79
2023/04/04 07:33:26;;;;;;;0.90;0.90;;;5.10;99.90;;;;;;5035953;28;20052;-78
2023/04/04 07:35:52;;;;;;;0.90;0.90;;;4.80;99.90;;;;;;5016539;28;20049;-79
2023/04/04 07:38:18;;;;;;;0.90;0.90;;;5.40;99.90;;;;;;5000827;28;20048;-79
2023/04/04 07:40:43;;;;;;;0.93;0.93;;;4.70;99.90;;;;;;5036092;28;20445;-79
2023/04/04 07:43:09;;;;;;;0.80;0.80;;;4.60;99.90;;;;;;5005849;28;20041;-79
2023/04/04 07:45:35;;;;;;;0.90;0.90;;;4.80;99.90;;;;;;5017702;28;20130;-79
2023/04/04 07:48:01;;;;;;;0.95;0.95;;;5.20;99.90;;;;;;5027893;28;20155;-79
2023/04/04 07:50:27;;;;;;;0.90;0.90;;;4.50;99.90;;;;;;5024815;28;20044;-78
2023/04/04 07:52:57;;;;;;;0.80;0.80;;;4.60;99.90;;;;;;5019203;28;20052;-79
2023/04/04 07:55:24;;;;;;;1.00;1.00;;;5.00;99.90;;;;;;5033396;28;20045;-79
2023/04/04 07:57:51;;;;;;;0.90;0.90;;;5.90;99.90;;;;;;5016836;28;20488;-78
2023/04/04 08:00:20;;;;;;;0.90;0.90;;;5.60;99.90;;;;;;5016903;28;20155;-78
2023/04/04 08:02:50;;;;;;;0.85;0.85;;;5.90;99.90;;;;;;5010001;28;20056;-78
2023/04/04 08:05:16;;;;;;;0.80;0.80;;;6.10;99.90;;;;;;5012880;28;20081;-79
2023/04/04 08:07:41;;;;;;;0.80;0.80;;;6.10;99.90;;;;;;5029087;28;20083;-78
2023/04/04 08:10:08;;;;;;;0.80;0.80;;;6.80;99.90;;;;;;5026307;28;20115;-78
2023/04/04 08:12:34;;;;;;;0.80;0.80;;;6.80;99.90;;;;;;5024064;28;20053;-79
2023/04/04 08:15:00;;;;;;;0.80;0.80;;;5.60;99.90;;;;;;5023011;28;20041;-79
2023/04/04 08:17:27;;;;;;;0.80;0.80;;;6.10;99.90;;;;;;5020889;28;20052;-78
2023/04/04 08:19:53;;;;;;;0.70;0.70;;;6.00;99.90;;;;;;5023757;28;20308;-79
2023/04/04 08:22:18;;;;;;;0.70;0.70;;;6.20;99.90;;;;;;5023104;28;20122;-79
2023/04/04 08:24:45;;;;;;;0.70;0.70;;;6.10;99.90;;;;;;5022811;28;20432;-79
2023/04/04 08:27:11;;;;;;;0.75;0.75;;;6.80;99.90;;;;;;5020598;28;20390;-78
2023/04/04 08:29:36;;;;;;;0.80;0.80;;;6.60;99.90;;;;;;5021901;28;20037;-79
2023/04/04 08:32:02;;;;;;;0.70;0.70;;;7.00;99.90;;;;;;5022920;28;20520;-78
2023/04/04 08:34:28;;;;;;;0.65;0.65;;;6.40;99.90;;;;;;5021695;28;20152;-78
2023/04/04 08:36:54;;;;;;;0.70;0.70;;;7.20;99.90;;;;;;5035021;28;20056;-78
2023/04/04 08:39:20;;;;;;;0.65;0.65;;;6.50;99.90;;;;;;5022472;28;20763;-79
2023/04/04 08:41:46;;;;;;;0.73;0.73;;;7.30;99.90;;;;;;5011711;28;20049;-79
2023/04/04 08:44:21;;;;;;;0.70;0.70;;;8.10;99.90;;;;;;5015292;28;20448;-78
2023/04/04 08:46:48;;;;;;;0.63;0.63;;;8.50;99.90;;;;;;5031362;28;20741;-79
2023/04/04 08:49:19;;;;;;;0.70;0.70;;;7.50;99.90;;;;;;5032300;28;20726;-78
2023/04/04 08:51:46;;;;;;;0.70;0.70;;;7.30;99.90;;;;;;5008999;28;20041;-77
2023/04/04 08:54:13;;;;;;;0.60;0.60;;;7.00;99.90;;;;;;4995193;28;20111;-79
2023/04/04 08:56:38;;;;;;;0.70;0.70;;;7.00;99.90;;;;;;5026017;28;20327;-78
2023/04/04 08:59:04;;;;;;;0.70;0.70;;;8.10;99.90;;;;;;5011311;28;20040;-79
2023/04/04 09:01:30;;;;;;;0.60;0.60;;;7.40;99.90;;;;;;5012779;28;20563;-79
2023/04/04 09:03:57;;;;;;;0.60;0.60;;;8.00;99.90;;;;;;5016702;28;20077;-78
2023/04/04 09:06:23;;;;;;;0.60;0.60;;;7.10;99.90;;;;;;5013090;28;20048;-78
2023/04/04 09:08:52;;;;;;;0.60;0.60;;;7.20;99.90;;;;;;5010133;28;20052;-78
2023/04/04 09:11:22;;;;;;;0.70;0.70;;;7.50;99.90;;;;;;5009998;28;20060;-78
2023/04/04 09:13:50;;;;;;;0.70;0.70;;;7.50;99.90;;;;;;5016655;28;20056;-79
2023/04/04 09:16:16;;;;;;;0.60;0.60;;;7.80;99.90;;;;;;5012171;28;20052;-78
2023/04/04 09:18:42;;;;;;;0.60;0.60;;;7.70;99.90;;;;;;5006180;28;20103;-78
2023/04/04 09:21:12;;;;;;;0.70;0.70;;;8.10;99.90;;;;;;5018760;28;20049;-78
2023/04/04 09:23:38;;;;;;;0.63;0.63;;;7.80;99.90;;;;;;4999998;28;20595;-78
2023/04/04 09:26:05;;;;;;;0.60;0.60;;;8.10;99.90;;;;;;5034596;28;20077;-79
2023/04/04 09:28:32;;;;;;;0.60;0.60;;;8.20;99.90;;;;;;5015163;28;20841;-78
2023/04/04 09:31:04;;;;;;;0.70;0.70;;;8.50;99.90;;;;;;5019854;28;20126;-78
2023/04/04 09:33:32;;;;;;;0.60;0.60;;;9.30;99.90;;;;;;5016144;28;20171;-79
2023/04/04 09:36:01;;;;;;;0.60;0.60;;;8.50;99.90;;;;;;5019089;28;20119;-79
2023/04/04 09:38:28;;;;;;;0.60;0.60;;;9.10;99.90;;;;;;5019487;28;20198;-79
2023/04/04 09:40:54;;;;;;;0.60;0.60;;;8.30;98.90;;;;;;5021768;28;20529;-79
2023/04/04 09:43:24;;;;;;;0.60;0.60;;;9.50;99.90;;;;;;5021979;28;20052;-78
2023/04/04 09:45:50;;;;;;;0.60;0.60;;;8.80;99.90;;;;;;5019927;28;20477;-78
2023/04/04 09:48:36;;;;;;;0.60;0.60;;;8.40;98.60;;;;;;5003786;28;20040;-78
2023/04/04 09:51:06;;;;;;;0.60;0.60;;;8.20;98.20;;;;;;5024405;28;20040;-78
2023/04/04 09:53:41;;;;;;;0.60;0.60;;;9.00;99.90;;;;;;5019861;28;20051;-78
2023/04/04 09:56:07;;;;;;;0.60;0.60;;;9.00;99.10;;;;;;5035035;28;20433;-78
2023/04/04 09:58:36;;;;;;;0.60;0.60;;;9.20;99.90;;;;;;5022013;28;20165;-78
2023/04/04 10:01:08;;;;;;;0.60;0.60;;;8.80;99.00;;;;;;5000783;28;21266;-78
2023/04/04 10:03:37;;;;;;;0.50;0.50;;;9.10;99.90;;;;;;5011253;28;20075;-78
2023/04/04 10:06:04;;;;;;;0.50;0.50;;;9.20;99.10;;;;;;5009428;28;20041;-78
2023/04/04 10:08:31;;;;;;;0.60;0.60;;;9.30;99.90;;;;;;5015689;28;20132;-78
2023/04/04 10:10:58;;;;;;;0.60;0.60;;;9.40;98.60;;;;;;5012990;28;20041;-78
2023/04/04 10:13:25;;;;;;;0.60;0.60;;;9.10;99.90;;;;;;5027294;28;20115;-77
2023/04/04 10:15:52;;;;;;;0.60;0.60;;;9.00;98.70;;;;;;5025493;28;20090;-78
2023/04/04 10:18:26;;;;;;;0.60;0.60;;;9.40;99.60;;;;;;5011256;28;20080;-79
2023/04/04 10:20:52;;;;;;;;;;;9.50;99.90;;;;;;5010586;28;20963;-78
2023/04/04 10:23:18;;;;;;;0.70;0.70;;;9.60;99.90;;;;;;5014281;28;20669;-78
2023/04/04 10:25:44;;;;;;;0.70;0.70;;;9.60;99.90;;;;;;5016941;28;20041;-78
2023/04/04 10:28:11;;;;;;;0.70;0.70;;;9.80;98.00;;;;;;5017014;28;20122;-78
2023/04/04 10:30:41;;;;;;;0.73;0.73;;;9.20;95.10;;;;;;5018406;28;20087;-78
2023/04/04 10:33:14;;;;;;;0.70;0.70;;;9.20;99.00;;;;;;5026489;28;20052;-78
2023/04/04 10:35:46;;;;;;;0.80;0.80;;;9.30;95.80;;;;;;5013399;28;20048;-79
2023/04/04 10:38:13;;;;;;;0.80;0.80;;;9.30;97.60;;;;;;5030386;28;20033;-79
2023/04/04 10:40:41;;;;;;;0.88;0.88;;;8.80;94.60;;;;;;5013788;28;20091;-78
2023/04/04 10:43:07;;;;;;;0.80;0.80;;;9.10;97.40;;;;;;5015012;28;20045;-79
2023/04/04 10:45:37;;;;;;;0.80;0.80;;;9.10;96.80;;;;;;5013423;28;20045;-79
2023/04/04 10:48:03;;;;;;;0.80;0.80;;;9.60;97.80;;;;;;5014983;28;20059;-78
2023/04/04 10:50:32;;;;;;;0.70;0.70;;;9.90;95.90;;;;;;5022625;28;20056;-79
2023/04/04 10:53:00;;;;;;;0.80;0.80;;;10.20;97.60;;;;;;5032080;28;20390;-78
2023/04/04 10:55:26;;;;;;;0.70;0.70;;;9.90;96.60;;;;;;5016589;28;20549;-80
2023/04/04 10:57:54;;;;;;;0.70;0.70;;;10.40;92.00;;;;;;5014100;28;20067;-78
2023/04/04 11:00:22;;;;;;;0.70;0.70;;;10.10;94.50;;;;;;5014027;28;20055;-79
2023/04/04 11:02:56;;;;;;;0.60;0.60;;;10.10;92.60;;;;;;5030795;28;20057;-79
2023/04/04 11:05:50;;;;;;;0.70;0.70;;;10.10;90.60;;;;;;5017135;28;20041;-78
2023/04/04 11:08:18;;;;;;;0.70;0.70;;;10.20;92.40;;;;;;5010859;28;20048;-79
2023/04/04 11:10:47;;;;;;;0.70;0.70;;;10.10;91.20;;;;;;5013329;28;20041;-78
2023/04/04 11:13:20;;;;;;;0.63;0.63;;;10.20;92.60;;;;;;5014807;28;20047;-79
2023/04/04 11:16:16;;;;;;;;;;;10.70;90.30;;;;;;4991060;28;20112;-79
2023/04/04 11:18:42;;;;;;;;;;;10.90;93.10;;;;;;5004697;28;20559;-78
2023/04/04 11:21:18;;;;;;;1.00;1.00;;;9.70;89.20;;;;;;4994319;28;20004;-79
2023/04/04 11:23:50;;;;;;;0.80;0.80;;;10.00;88.80;;;;;;5028305;28;20524;-79
2023/04/04 11:26:34;;;;;;;0.77;0.77;;;10.10;91.00;;;;;;5024715;28;20390;-76
2023/04/04 11:29:04;;;;;;;0.80;0.80;;;10.20;87.10;;;;;;5012314;28;20045;-78
2023/04/04 11:31:41;;;;;;;0.77;0.77;;;10.20;93.00;;;;;;4996233;28;20110;-79
2023/04/04 11:37:18;;;;;;;0.77;0.77;;;10.90;85.00;;;;;;5007880;28;20053;-79
2023/04/04 11:39:57;;;;;;;1.00;1.00;;;10.90;90.70;;;;;;4985992;28;20132;-78
2023/04/04 11:42:23;;;;;;;1.00;1.00;;;10.70;87.50;;;;;;5026408;28;21132;-78
2023/04/04 11:44:58;;;;;;;1.10;1.10;;;11.00;91.70;;;;;;5014792;28;20040;-79
2023/04/04 11:47:24;;;;;;;0.95;0.95;;;10.30;84.40;;;;;;5014335;28;20119;-79
2023/04/04 11:49:52;;;;;;;0.98;0.98;;;10.90;88.80;;;;;;5013298;28;20049;-79
2023/04/04 11:52:24;;;;;;;1.00;1.00;;;10.80;86.10;;;;;;5015077;28;20060;-79
2023/04/04 11:54:50;;;;;;;0.90;0.90;;;11.00;85.30;;;;;;5030890;28;20055;-78
2023/04/04 11:57:20;;;;;;;0.88;0.88;;;11.10;82.70;;;;;;5013975;28;20076;-80
2023/04/04 11:59:47;;;;;;;0.88;0.88;;;11.20;84.70;;;;;;5017072;28;20094;-79
2023/04/04 12:02:20;;;;;;;0.85;0.85;;;11.10;81.00;;;;;;5016516;28;20053;-78
2023/04/04 12:04:46;;;;;;;0.98;0.98;;;11.20;85.20;;;;;;5029530;28;20036;-79
2023/04/04 12:07:14;;;;;;;0.90;0.90;;;11.70;90.30;;;;;;5016698;28;20091;-79
2023/04/04 12:09:41;;;;;;;1.02;1.02;;;11.50;83.20;;;;;;5017701;28;20102;-79
2023/04/04 12:12:11;;;;;;;1.10;1.10;;;10.80;79.10;;;;;;5029361;28;20049;-79
2023/04/04 12:14:38;;;;;;;1.15;1.15;;;10.20;79.10;;;;;;5031937;28;20036;-79
2023/04/04 12:17:04;;;;;;;1.20;1.20;;;10.30;76.30;;;;;;5015384;28;20048;-76
2023/04/04 12:19:35;;;;;;;0.98;0.98;;;10.90;88.60;;;;;;5018822;28;20629;-76
2023/04/04 12:22:00;;;;;;;1.10;1.10;;;11.50;85.90;;;;;;5028942;28;20598;-79
2023/04/04 12:24:26;;;;;;;1.08;1.08;;;10.60;74.50;;;;;;5032327;28;20460;-78
2023/04/04 12:26:52;;;;;;;1.10;1.10;;;10.80;80.30;;;;;;5009624;28;20069;-78
2023/04/04 12:29:20;;;;;;;1.10;1.10;;;11.40;82.20;;;;;;5016400;28;20095;-79
2023/04/04 12:31:48;;;;;;;1.13;1.13;;;11.50;79.80;;;;;;5015632;28;20477;-78
2023/04/04 12:34:21;;;;;;;1.05;1.05;;;11.10;81.80;;;;;;5020228;28;20049;-79
2023/04/04 12:36:55;;;;;;;1.10;1.10;;;11.40;80.10;;;;;;5017070;28;20747;-79
2023/04/04 12:39:24;;;;;;;1.00;1.00;;;10.90;81.20;;;;;;5037344;28;20148;-79
2023/04/04 12:41:54;;;;;;;1.10;1.10;;;12.20;85.70;;;;;;5017447;28;20122;-79
2023/04/04 12:44:36;;;;;;;1.00;1.00;;;12.10;79.70;;;;;;5036002;28;20127;-79
2023/04/04 12:47:05;;;;;;;1.02;1.02;;;11.70;76.30;;;;;;5018662;28;20039;-79
2023/04/04 12:49:39;;;;;;;1.08;1.08;;;11.90;77.60;;;;;;5019947;28;20044;-79
2023/04/04 12:52:06;;;;;;;;;;;12.20;79.60;;;;;;5019286;28;20168;-79
2023/04/04 12:54:37;;;;;;;1.13;1.13;;;10.30;78.50;;;;;;5035763;28;20665;-79
2023/04/04 12:57:04;;;;;;;1.10;1.10;;;11.80;86.40;;;;;;5035919;28;20601;-79
2023/04/04 12:59:32;;;;;;;1.08;1.08;;;11.90;82.60;;;;;;5019329;28;20057;-79